Nashville, KS

10:58 AM CST on November 22, 2014 (GMT -0600)
Pratt Industrial | Change Station
CLOSE
Current Station
Airport
Location: Pratt,
Elevation: 1952 ft
Nearby Weather Stations
Active Advisory: Dense Fog Advisory Active Notice: Public Information Statement

Elev 1952 ft 37.70 °N, 98.75 °W | Updated 23 minutes ago

Fog
Fog
48 °F
Feels Like 48 °F
N
15
Wind Variable Wind from SSW

Today
High -- | Low -- °F
--% Chance of Precip.
Yesterday
High -- | Low -- °F
Precip. -- in
7:20 AM 5:18 PM
New Moon, 0% visible
Pressure 29.91 in
Visibility 1.0 miles
Clouds Overcast 100 ft
Dew Point 48 °F
Humidity 100%
Rainfall 0.00 in
Snow Depth Not available.
UV 1 out of 12
Pollen .10 out of 12
Air Quality Not available.
Flu Activity Not available.
METAR KPTT 221635Z AUTO 20013KT 1SM BR OVC001 09/09 A2991 RMK AO2 LTG DSNT S AND SW

More Conditions Fewer Conditions

Pressure 29.91 in
Visibility 1.0 miles
Clouds Overcast 100 ft
Dew Point 48 °F
Humidity 100%
Rainfall 0.00 in
Snow Depth Not available.
UV 1 out of 12
Pollen .10 out of 12
Air Quality Not available.
Flu Activity Not available.
METAR KPTT 221635Z AUTO 20013KT 1SM BR OVC001 09/09 A2991 RMK AO2 LTG DSNT S AND SW

More Conditions Fewer Conditions

10-Day Weather Forecast

Almanac

Astronomy

Nov. 22, 2014 Rise Set
Actual Time
Civil Twilight
Nautical Twilight
Astronomical Twilight
Moon
Length of Visible Light
Length of Day
Tomorrow will be .
, % of the Moon is Illuminated

Today's Extremes

State Highs State Lows

Community

WunderPhotos

Upload Photos

1,772,855 photos uploaded!

WunderBlogs® & News

Nearby

Air Quality

  Air Quality AQ Index Pollutant
Not available.

Snow Depth

Station Depth Elevation

Earthquake Activity

City Distance Mag. Time & Date
Minimum magnitude displayed is 2.5.

Coastal Water Temperatures

Place Temperature

Nearby Weather Stations